Time;durP1;ratioP1;P1;durP2;ratioP2;P2;SDS_P1;SDS_P2;PMS_P1;PMS_P2;Temp;Humidity;BMP_temperature;BMP_pressure;BME280_temperature;BME280_humidity;BME280_pressure;Samples;Min_cycle;Max_cycle;Signal;HPM_P1;HPM_P2
2023/01/15 00:01:33;;;;;;;;;;;6.70;99.90;;;;;;5118105;27;19923;-80
2023/01/15 00:03:59;;;;;;;;;;;6.70;99.90;;;;;;5115185;27;19931;-80
2023/01/15 00:06:25;;;;;;;;;;;6.70;99.90;;;;;;5117480;27;19988;-80
2023/01/15 00:08:51;;;;;;;;;;;6.70;99.90;;;;;;5100985;27;19971;-80
2023/01/15 00:11:17;;;;;;;;;;;6.70;99.90;;;;;;5094448;27;19953;-80
2023/01/15 00:13:43;;;;;;;;;;;6.70;99.90;;;;;;5114492;27;19923;-80
2023/01/15 00:16:10;;;;;;;;;;;6.60;99.90;;;;;;5099364;27;19934;-80
2023/01/15 00:18:36;;;;;;;;;;;6.60;99.90;;;;;;5116633;28;19962;-80
2023/01/15 00:21:02;;;;;;;;;;;6.60;99.90;;;;;;5100637;28;19931;-80
2023/01/15 00:29:01;;;;;;;;;;;6.60;99.90;;;;;;5117302;28;19930;-80
2023/01/15 00:31:27;;;;;;;;;;;6.60;99.90;;;;;;5101034;28;19955;-80
2023/01/15 00:33:53;;;;;;;;;;;6.60;99.90;;;;;;5118779;28;20008;-80
2023/01/15 00:36:19;;;;;;;;;;;6.60;99.90;;;;;;5100148;27;19966;-80
2023/01/15 00:38:44;;;;;;;;;;;6.60;99.90;;;;;;5107597;28;20001;-80
2023/01/15 00:41:10;;;;;;;;;;;6.60;99.90;;;;;;5120378;28;19926;-80
2023/01/15 00:43:35;;;;;;;;;;;6.60;99.90;;;;;;5110804;28;19945;-80
2023/01/15 00:46:01;;;;;;;;;;;6.60;99.90;;;;;;5117135;28;19970;-80
2023/01/15 00:48:26;;;;;;;;;;;6.70;99.90;;;;;;5116728;27;19968;-80
2023/01/15 00:50:52;;;;;;;;;;;6.70;99.90;;;;;;5122217;27;19923;-80
2023/01/15 00:53:18;;;;;;;;;;;6.70;99.90;;;;;;5120428;27;19970;-80
2023/01/15 00:55:44;;;;;;;;;;;6.60;99.90;;;;;;5101659;27;19931;-80
2023/01/15 00:58:09;;;;;;;;;;;6.60;99.90;;;;;;5122499;27;19932;-80
2023/01/15 01:00:35;;;;;;;;;;;6.60;99.90;;;;;;5117570;27;19938;-80
2023/01/15 01:03:00;;;;;;;;;;;6.60;99.90;;;;;;5103321;27;19942;-80
2023/01/15 01:05:26;;;;;;;;;;;6.60;99.90;;;;;;5086895;27;19924;-80
2023/01/15 01:07:52;;;;;;;;;;;6.60;99.90;;;;;;5102276;27;19943;-80
2023/01/15 01:10:17;;;;;;;;;;;6.60;99.90;;;;;;5126942;27;19934;-80
2023/01/15 01:12:43;;;;;;;;;;;6.60;99.90;;;;;;5121210;27;20398;-80
2023/01/15 01:15:09;;;;;;;;;;;6.60;99.90;;;;;;5090150;27;20357;-80
2023/01/15 01:17:37;;;;;;;;;;;6.50;99.90;;;;;;5122830;27;19932;-80
2023/01/15 01:20:03;;;;;;;;;;;6.50;99.90;;;;;;5119550;27;19966;-80
2023/01/15 01:22:29;;;;;;;;;;;6.50;99.90;;;;;;5123152;27;19953;-80
2023/01/15 01:24:54;;;;;;;;;;;6.50;99.90;;;;;;5100205;27;19954;-80
2023/01/15 01:27:20;;;;;;;;;;;6.50;99.90;;;;;;5120439;27;19927;-80
2023/01/15 01:29:45;;;;;;;;;;;6.50;99.90;;;;;;5120018;27;20039;-80
2023/01/15 01:32:12;;;;;;;;;;;6.50;99.90;;;;;;5122425;27;19923;-80
2023/01/15 01:34:37;;;;;;;;;;;6.50;99.90;;;;;;5104731;27;19923;-80
2023/01/15 01:37:03;;;;;;;;;;;6.50;99.90;;;;;;5104320;27;20301;-80
2023/01/15 01:39:29;;;;;;;;;;;6.50;99.90;;;;;;5123138;27;20044;-80
2023/01/15 01:41:54;;;;;;;;;;;6.50;99.90;;;;;;5101063;27;19928;-80
2023/01/15 01:44:32;;;;;;;;;;;6.50;99.90;;;;;;5102312;27;19963;-80
2023/01/15 01:47:01;;;;;;;;;;;6.50;99.90;;;;;;5115144;27;19928;-81
2023/01/15 01:49:27;;;;;;;;;;;6.50;99.90;;;;;;5120442;27;20305;-80
2023/01/15 01:51:59;;;;;;;;;;;6.50;99.90;;;;;;5121922;27;19924;-80
2023/01/15 01:54:25;;;;;;;;;;;6.50;99.90;;;;;;5118905;27;19919;-80
2023/01/15 01:56:52;;;;;;;;;;;6.50;99.90;;;;;;5102694;27;19962;-81
2023/01/15 01:59:19;;;;;;;;;;;6.50;99.90;;;;;;5119969;27;20779;-80
2023/01/15 02:01:45;;;;;;;;;;;6.50;99.90;;;;;;5104846;27;19952;-80
2023/01/15 02:04:11;;;;;;;;;;;6.50;99.90;;;;;;5116213;27;19927;-80
2023/01/15 02:06:37;;;;;;;;;;;6.50;99.90;;;;;;5088464;27;20002;-80
2023/01/15 02:09:03;;;;;;;;;;;6.50;99.90;;;;;;5117457;27;19967;-80
2023/01/15 02:11:29;;;;;;;;;;;6.50;99.90;;;;;;5118586;27;19971;-80
2023/01/15 02:14:06;;;;;;;;;;;6.40;99.90;;;;;;5106240;27;19923;-80
2023/01/15 02:16:38;;;;;;;;;;;6.50;99.90;;;;;;5097320;27;19932;-80
2023/01/15 02:19:10;;;;;;;;;;;6.50;99.90;;;;;;5095626;27;20392;-80
2023/01/15 02:21:45;;;;;;;;;;;6.50;99.90;;;;;;5100613;27;19953;-80
2023/01/15 02:24:10;;;;;;;;;;;6.40;99.90;;;;;;5117609;27;19962;-80
2023/01/15 02:26:54;;;;;;;;;;;6.50;99.90;;;;;;5121606;27;19947;-80
2023/01/15 02:29:43;;;;;;;;;;;6.40;99.90;;;;;;5114377;28;19980;-80
2023/01/15 02:32:19;;;;;;;;;;;6.40;99.90;;;;;;5105946;28;20002;-80
2023/01/15 02:34:47;;;;;;;;;;;6.50;99.90;;;;;;5118537;28;20469;-79
2023/01/15 02:37:16;;;;;;;;;;;6.50;99.90;;;;;;5115252;28;19924;-80
2023/01/15 02:39:44;;;;;;;;;;;6.50;99.90;;;;;;5102348;28;19923;-80
2023/01/15 02:42:11;;;;;;;;;;;6.50;99.90;;;;;;5120102;28;19924;-79
2023/01/15 02:44:41;;;;;;;;;;;6.50;99.90;;;;;;5116931;28;20402;-80
2023/01/15 02:47:08;;;;;;;;;;;6.40;99.90;;;;;;5113164;28;20247;-80
2023/01/15 02:49:35;;;;;;;;;;;6.40;99.90;;;;;;5097797;28;19927;-80
2023/01/15 02:52:01;;;;;;;;;;;6.40;99.90;;;;;;5109470;28;19990;-80
2023/01/15 02:54:27;;;;;;;;;;;6.40;99.90;;;;;;5102989;28;19973;-80
2023/01/15 02:56:53;;;;;;;;;;;6.40;99.90;;;;;;5110912;28;19924;-80
2023/01/15 02:59:21;;;;;;;;;;;6.40;99.90;;;;;;5102857;28;20451;-80
2023/01/15 03:01:50;;;;;;;;;;;6.40;99.90;;;;;;5100608;28;19931;-80
2023/01/15 03:04:35;;;;;;;;;;;6.40;99.90;;;;;;5105982;28;19931;-80
2023/01/15 03:07:13;;;;;;;;;;;6.40;99.90;;;;;;5102221;28;19930;-81
2023/01/15 03:09:39;;;;;;;;;;;6.40;99.90;;;;;;5103231;28;19927;-80
2023/01/15 03:12:13;;;;;;;;;;;6.30;99.90;;;;;;5118679;28;19949;-80
2023/01/15 03:14:43;;;;;;;;;;;6.40;99.90;;;;;;5103136;28;19932;-80
2023/01/15 03:17:21;;;;;;;;;;;6.30;99.90;;;;;;5100598;28;19928;-80
2023/01/15 03:19:49;;;;;;;;;;;6.40;99.90;;;;;;5119245;28;19923;-80
2023/01/15 03:22:22;;;;;;;;;;;6.40;99.90;;;;;;5120105;28;19927;-80
2023/01/15 03:24:53;;;;;;;;;;;6.40;99.90;;;;;;5102163;28;19924;-80
2023/01/15 03:27:19;;;;;;;;;;;6.40;99.90;;;;;;5114719;27;19927;-79
2023/01/15 03:29:48;;;;;;;;;;;6.30;99.90;;;;;;5119172;27;20346;-80
2023/01/15 03:32:15;;;;;;;;;;;6.40;99.90;;;;;;5106867;27;20327;-80
2023/01/15 03:34:45;;;;;;;;;;;6.30;99.90;;;;;;5122589;27;19927;-80
2023/01/15 03:37:11;;;;;;;;;;;6.40;99.90;;;;;;5122598;27;19987;-80
2023/01/15 03:39:37;;;;;;;;;;;6.40;99.90;;;;;;5121664;27;19982;-80
2023/01/15 03:42:09;;;;;;;;;;;6.30;99.90;;;;;;5085107;27;19943;-80
2023/01/15 03:44:35;;;;;;;;;;;6.30;99.90;;;;;;5115680;27;19927;-80
2023/01/15 03:47:12;;;;;;;;;;;6.30;99.90;;;;;;5114715;27;19931;-80
2023/01/15 03:49:41;;;;;;;;;;;6.30;99.90;;;;;;5098386;27;19923;-79
2023/01/15 03:52:07;;;;;;;;;;;6.30;99.90;;;;;;5098845;27;20394;-80
2023/01/15 03:54:36;;;;;;;;;;;6.30;99.90;;;;;;5099107;27;19931;-80
2023/01/15 03:57:04;;;;;;;;;;;6.30;99.90;;;;;;5118939;27;20322;-80
2023/01/15 03:59:50;;;;;;;;;;;6.30;99.90;;;;;;5117908;27;19931;-80
2023/01/15 04:02:17;;;;;;;;;;;6.20;99.90;;;;;;5116130;27;19927;-80
2023/01/15 04:04:42;;;;;;;;;;;6.20;99.90;;;;;;5099874;27;19931;-80
2023/01/15 04:07:08;;;;;;;;;;;6.20;99.90;;;;;;5114747;27;19927;-80
2023/01/15 04:09:38;;;;;;;;;;;6.20;99.90;;;;;;5099750;28;19923;-80
2023/01/15 04:12:04;;;;;;;;;;;6.20;99.90;;;;;;5113808;28;19928;-80
2023/01/15 04:14:30;;;;;;;;;;;6.20;99.90;;;;;;5113703;27;20389;-79
2023/01/15 04:16:56;;;;;;;;;;;6.20;99.90;;;;;;5099611;28;19935;-80
2023/01/15 04:19:21;;;;;;;;;;;6.20;99.90;;;;;;5096172;28;19960;-81
2023/01/15 04:21:47;;;;;;;;;;;6.10;99.90;;;;;;5117129;27;19928;-80
2023/01/15 04:24:12;;;;;;;;;;;6.10;99.90;;;;;;5093966;27;19923;-80
2023/01/15 04:26:38;;;;;;;;;;;6.10;99.90;;;;;;5096970;28;19942;-80
2023/01/15 04:29:03;;;;;;;;;;;6.10;99.90;;;;;;5107847;28;19924;-80
2023/01/15 04:31:32;;;;;;;;;;;6.10;99.90;;;;;;5115063;28;19928;-80
2023/01/15 04:33:58;;;;;;;;;;;6.10;99.90;;;;;;5111081;28;21090;-80
2023/01/15 04:36:23;;;;;;;;;;;6.10;99.90;;;;;;5109515;28;20260;-80
2023/01/15 04:38:49;;;;;;;;;;;6.10;99.90;;;;;;5093588;28;19931;-80
2023/01/15 04:44:05;;;;;;;;;;;6.10;99.90;;;;;;5112066;28;19974;-80
2023/01/15 04:46:31;;;;;;;;;;;6.10;99.90;;;;;;5094437;28;19932;-80
2023/01/15 04:48:56;;;;;;;;;;;6.10;99.90;;;;;;5097909;28;19931;-80
2023/01/15 04:51:22;;;;;;;;;;;6.10;99.90;;;;;;5092238;28;19924;-80
2023/01/15 04:53:48;;;;;;;;;;;6.10;99.90;;;;;;5112833;28;19986;-80
2023/01/15 04:56:13;;;;;;;;;;;6.10;99.90;;;;;;5113065;28;19932;-80
2023/01/15 04:58:39;;;;;;;;;;;6.10;99.90;;;;;;5093543;28;19938;-79
2023/01/15 05:01:12;;;;;;;;;;;6.10;99.90;;;;;;5096544;28;20024;-80
2023/01/15 05:03:37;;;;;;;;;;;6.10;99.90;;;;;;5111982;28;19923;-81
2023/01/15 05:06:04;;;;;;;;;;;6.10;99.90;;;;;;5113377;28;19985;-80
2023/01/15 05:08:29;;;;;;;;;;;6.10;99.90;;;;;;5110322;28;19934;-79
2023/01/15 05:10:55;;;;;;;;;;;6.10;99.90;;;;;;5114847;28;19991;-80
2023/01/15 05:13:21;;;;;;;;;;;6.00;99.90;;;;;;5109734;28;19938;-79
2023/01/15 05:15:47;;;;;;;;;;;6.00;99.90;;;;;;5095538;28;19924;-80
2023/01/15 05:18:15;;;;;;;;;;;6.00;99.90;;;;;;5109980;28;19927;-80
2023/01/15 05:20:41;;;;;;;;;;;6.00;99.90;;;;;;5109040;28;19946;-80
2023/01/15 05:23:07;;;;;;;;;;;6.00;99.90;;;;;;5105154;28;19955;-80
2023/01/15 05:25:34;;;;;;;;;;;6.00;99.90;;;;;;5091956;28;19963;-80
2023/01/15 05:28:00;;;;;;;;;;;6.00;99.90;;;;;;5088667;28;19928;-80
2023/01/15 05:30:26;;;;;;;;;;;6.00;99.90;;;;;;5089286;28;19991;-80
2023/01/15 05:32:51;;;;;;;;;;;6.00;99.90;;;;;;5089251;28;19986;-80
2023/01/15 05:35:17;;;;;;;;;;;6.00;99.90;;;;;;5074009;28;19924;-80
2023/01/15 05:37:42;;;;;;;;;;;6.00;99.90;;;;;;5076818;28;19932;-80
2023/01/15 05:40:08;;;;;;;;;;;5.90;99.90;;;;;;5071546;28;19932;-80
2023/01/15 05:42:34;;;;;;;;;;;6.00;99.90;;;;;;5051556;28;20002;-80
2023/01/15 05:44:59;;;;;;;;;;;5.90;99.90;;;;;;5081203;28;19932;-80
2023/01/15 05:47:25;;;;;;;;;;;5.90;99.90;;;;;;5076028;28;19987;-80
2023/01/15 05:49:51;;;;;;;;;;;5.90;99.90;;;;;;5073515;28;19925;-80
2023/01/15 05:52:16;;;;;;;;;;;5.90;99.90;;;;;;5094615;28;20277;-80
2023/01/15 05:54:42;;;;;;;;;;;5.90;99.90;;;;;;5075806;28;20389;-79
2023/01/15 05:57:09;;;;;;;;;;;5.90;99.90;;;;;;5078793;28;19950;-80
2023/01/15 05:59:35;;;;;;;;;;;5.90;99.90;;;;;;5095724;28;19946;-79
2023/01/15 06:02:00;;;;;;;;;;;5.80;99.90;;;;;;5095715;28;19924;-79
2023/01/15 06:04:26;;;;;;;;;;;5.80;99.90;;;;;;5095260;28;19963;-79
2023/01/15 06:06:52;;;;;;;;;;;5.80;99.90;;;;;;5078743;28;19924;-80
2023/01/15 06:09:18;;;;;;;;;;;5.70;99.90;;;;;;5095063;28;19945;-80
2023/01/15 06:11:44;;;;;;;;;;;5.60;99.90;;;;;;5090880;28;19990;-80
2023/01/15 06:14:11;;;;;;;;;;;5.60;99.90;;;;;;5077832;28;19946;-79
2023/01/15 06:16:36;;;;;;;;;;;5.60;99.90;;;;;;5077749;28;19935;-79
2023/01/15 06:19:03;;;;;;;;;;;5.50;99.90;;;;;;5093007;28;19928;-79
2023/01/15 06:21:29;;;;;;;;;;;5.50;99.90;;;;;;5074473;28;19928;-79
2023/01/15 06:23:54;;;;;;;;;;;5.50;99.90;;;;;;5095359;28;19948;-79
2023/01/15 06:26:20;;;;;;;;;;;5.50;99.90;;;;;;5092126;28;21127;-79
2023/01/15 06:28:46;;;;;;;;;;;5.50;99.90;;;;;;5087621;28;19924;-79
2023/01/15 06:31:13;;;;;;;;;;;5.60;99.90;;;;;;5099049;28;19945;-80
2023/01/15 06:33:39;;;;;;;;;;;5.60;99.90;;;;;;5111039;28;19928;-80
2023/01/15 06:36:06;;;;;;;;;;;5.60;99.90;;;;;;5113809;28;19927;-79
2023/01/15 06:38:32;;;;;;;;;;;5.50;99.90;;;;;;5097952;28;19932;-80
2023/01/15 06:40:59;;;;;;;;;;;5.40;99.90;;;;;;5115970;28;20010;-80
2023/01/15 06:48:53;;;;;;;;;;;5.40;99.90;;;;;;5115678;28;19924;-80
2023/01/15 06:51:20;;;;;;;;;;;5.40;99.90;;;;;;5115487;28;19959;-79
2023/01/15 06:53:46;;;;;;;;;;;5.40;99.90;;;;;;5098039;28;19928;-80
2023/01/15 06:56:13;;;;;;;;;;;5.40;99.90;;;;;;5113016;28;19950;-80
2023/01/15 06:58:39;;;;;;;;;;;5.40;99.90;;;;;;5112053;28;20019;-79
2023/01/15 07:01:11;;;;;;;;;;;5.30;99.90;;;;;;5112685;28;20503;-80
2023/01/15 07:03:37;;;;;;;;;;;5.30;99.90;;;;;;5096949;28;20386;-80
2023/01/15 07:06:12;;;;;;;;;;;5.30;99.90;;;;;;5093395;28;19977;-79
2023/01/15 07:08:38;;;;;;;;;;;5.30;99.90;;;;;;5092437;28;19941;-80
2023/01/15 07:11:04;;;;;;;;;;;5.40;99.90;;;;;;5113307;28;19928;-80
2023/01/15 07:13:30;;;;;;;;;;;5.30;99.90;;;;;;5097934;28;19927;-80
2023/01/15 07:15:57;;;;;;;;;;;5.30;99.90;;;;;;5094839;28;19975;-80
2023/01/15 07:18:22;;;;;;;;;;;5.30;99.90;;;;;;5114952;28;19930;-80
2023/01/15 07:20:48;;;;;;;;;;;5.20;99.90;;;;;;5098026;28;19988;-80
2023/01/15 07:23:13;;;;;;;;;;;5.20;99.90;;;;;;5113824;28;19931;-80
2023/01/15 07:25:39;;;;;;;;;;;5.20;99.90;;;;;;5112421;28;19928;-80
2023/01/15 07:28:04;;;;;;;;;;;5.10;99.90;;;;;;5104911;28;20009;-79
2023/01/15 07:30:30;;;;;;;;;;;5.10;99.90;;;;;;5091961;28;19954;-79
2023/01/15 07:32:56;;;;;;;;;;;5.10;99.90;;;;;;5091270;28;19932;-80
2023/01/15 07:35:21;;;;;;;;;;;5.10;99.90;;;;;;5092528;28;20053;-80
2023/01/15 07:37:51;;;;;;;;;;;5.00;99.90;;;;;;5091692;28;19924;-80
2023/01/15 07:40:17;;;;;;;;;;;5.00;99.90;;;;;;5096048;28;19935;-80
2023/01/15 07:51:15;;;;;;;;;;;4.90;99.90;;;;;;5023565;28;19929;-80
2023/01/15 07:53:41;;;;;;;;;;;5.00;99.90;;;;;;5062979;28;19956;-80
2023/01/15 07:56:07;;;;;;;;;;;5.00;99.90;;;;;;5089880;28;19940;-79
2023/01/15 07:58:32;;;;;;;;;;;5.00;99.90;;;;;;5092219;28;21606;-80
2023/01/15 08:00:58;;;;;;;;;;;5.00;99.90;;;;;;5092720;28;19928;-80
2023/01/15 08:03:23;;;;;;;;;;;5.00;99.90;;;;;;5074991;28;19967;-80
2023/01/15 08:05:49;;;;;;;;;;;5.00;99.90;;;;;;5091165;28;19932;-80
2023/01/15 08:08:15;;;;;;;;;;;4.90;99.90;;;;;;5072818;28;19934;-80
2023/01/15 08:16:10;;;;;;;;;;;5.00;99.90;;;;;;5092155;28;19928;-79
2023/01/15 08:18:36;;;;;;;;;;;5.00;99.90;;;;;;5090324;28;21076;-80
2023/01/15 08:21:01;;;;;;;;;;;5.00;99.90;;;;;;5089581;28;19991;-79
2023/01/15 08:23:27;;;;;;;;;;;5.10;99.90;;;;;;5093093;28;20007;-78
2023/01/15 08:25:52;;;;;;;;;;;5.20;99.90;;;;;;5091132;28;19932;-80
2023/01/15 08:28:18;;;;;;;;;;;5.20;99.90;;;;;;5089749;28;20016;-79
2023/01/15 08:30:44;;;;;;;;;;;5.20;99.90;;;;;;5088990;28;19932;-79
2023/01/15 08:33:09;;;;;;;;;;;5.20;99.90;;;;;;5092993;28;19934;-79
2023/01/15 08:35:35;;;;;;;;;;;5.30;99.90;;;;;;5090566;28;19928;-79
2023/01/15 08:38:05;;;;;;;;;;;5.30;99.90;;;;;;5090364;28;19950;-80
2023/01/15 08:40:30;;;;;;;;;;;5.30;99.90;;;;;;5090131;28;19929;-79
2023/01/15 08:42:56;;;;;;;;;;;5.40;99.90;;;;;;5093760;28;19935;-80
2023/01/15 08:45:21;;;;;;;;;;;5.50;99.90;;;;;;5095145;28;20056;-79
2023/01/15 08:47:47;;;;;;;;;;;5.60;99.90;;;;;;5087445;28;19924;-79
2023/01/15 08:50:12;;;;;;;;;;;5.60;99.90;;;;;;5091286;28;19960;-79
2023/01/15 08:52:38;;;;;;;;;;;5.60;99.90;;;;;;5085441;28;19950;-79
2023/01/15 08:55:04;;;;;;;;;;;5.60;99.90;;;;;;5090294;28;19928;-79
2023/01/15 08:57:30;;;;;;;;;;;5.60;99.90;;;;;;5093185;28;19995;-80
2023/01/15 08:59:55;;;;;;;;;;;5.50;99.90;;;;;;5071920;28;19963;-80
2023/01/15 09:02:21;;;;;;;;;;;5.50;99.90;;;;;;5093883;28;19931;-79
2023/01/15 09:04:46;;;;;;;;;;;5.30;99.90;;;;;;5087722;28;19928;-79
2023/01/15 09:07:12;;;;;;;;;;;5.20;99.90;;;;;;5071036;28;19935;-78
2023/01/15 09:09:38;;;;;;;;;;;5.00;99.90;;;;;;5091220;28;19979;-79
2023/01/15 09:12:03;;;;;;;;;;;4.90;99.90;;;;;;5072274;28;19924;-79
2023/01/15 09:14:29;;;;;;;;;;;4.80;99.90;;;;;;5091157;28;19932;-78
2023/01/15 09:16:54;;;;;;;;;;;4.70;99.90;;;;;;5095323;28;19924;-79
2023/01/15 09:19:20;;;;;;;;;;;4.60;99.90;;;;;;5108505;28;19928;-78
2023/01/15 09:21:45;;;;;;;;;;;4.50;99.90;;;;;;5093735;28;19931;-79
2023/01/15 09:24:11;;;;;;;;;;;4.40;99.90;;;;;;5091996;28;19924;-80
2023/01/15 09:26:38;;;;;;;;;;;4.30;99.90;;;;;;5094448;28;19928;-80
2023/01/15 09:29:04;;;;;;;;;;;4.10;99.90;;;;;;5096952;28;20657;-80
2023/01/15 09:31:30;;;;;;;;;;;4.00;99.90;;;;;;5079912;28;19973;-80
2023/01/15 09:33:55;;;;;;;;;;;3.90;99.90;;;;;;5095223;28;19935;-80
2023/01/15 09:36:23;;;;;;;;;;;3.90;99.90;;;;;;5096712;28;19930;-80
2023/01/15 09:38:49;;;;;;;;;;;3.90;99.90;;;;;;5096315;28;19943;-80
2023/01/15 09:44:19;;;;;;;;;;;4.10;99.90;;;;;;5094755;28;19950;-80
2023/01/15 09:47:03;;;;;;;;;;;4.20;99.90;;;;;;5093916;28;19965;-79
2023/01/15 09:49:44;;;;;;;;;;;4.30;99.90;;;;;;5092248;28;20203;-80
2023/01/15 09:52:22;;;;;;;;;;;4.40;99.90;;;;;;5089956;28;19932;-79
2023/01/15 09:54:55;;;;;;;;;;;4.50;99.90;;;;;;5091005;28;19970;-79
2023/01/15 09:57:22;;;;;;;;;;;4.60;99.90;;;;;;5095574;28;19928;-80
2023/01/15 09:59:49;;;;;;;;;;;4.70;99.90;;;;;;5072061;28;19963;-79
2023/01/15 10:02:36;;;;;;;;;;;4.70;99.90;;;;;;5094684;28;20531;-79
2023/01/15 10:05:28;;;;;;;;;;;4.70;99.90;;;;;;5092155;28;20012;-79
2023/01/15 10:08:24;;;;;;;;;;;4.80;99.90;;;;;;5052566;28;19928;-80
2023/01/15 10:11:01;;;;;;;;;;;4.80;99.90;;;;;;4974854;28;19941;-80
2023/01/15 10:13:26;;;;;;;;;;;4.80;99.90;;;;;;5095443;28;20413;-80
2023/01/15 10:15:52;;;;;;;;;;;4.90;99.90;;;;;;5092938;28;19970;-80
2023/01/15 10:18:19;;;;;;;;;;;4.90;99.90;;;;;;5076855;28;19924;-81
2023/01/15 10:20:44;;;;;;;;;;;5.00;99.90;;;;;;5096174;28;20351;-81
2023/01/15 10:23:13;;;;;;;;;;;5.00;99.90;;;;;;5091504;28;19928;-81
2023/01/15 10:25:46;;;;;;;;;;;5.00;99.90;;;;;;5098387;28;19992;-81
2023/01/15 10:28:22;;;;;;;;;;;5.00;99.90;;;;;;5103962;28;19923;-81
2023/01/15 10:30:53;;;;;;;;;;;5.10;99.90;;;;;;5119672;28;19924;-81
2023/01/15 10:33:27;;;;;;;;;;;5.20;99.90;;;;;;5117757;28;19927;-81
2023/01/15 10:35:57;;;;;;;;;;;5.30;99.90;;;;;;5119882;28;19924;-81
2023/01/15 10:38:35;;;;;;;;;;;5.30;99.90;;;;;;5118451;28;19924;-81
2023/01/15 10:41:05;;;;;;;;;;;5.40;99.90;;;;;;5133333;27;19988;-81
2023/01/15 10:43:43;;;;;;;;;;;5.40;99.90;;;;;;5112924;28;19923;-80
2023/01/15 10:46:11;;;;;;;;;;;5.30;99.90;;;;;;5118605;28;19923;-81
2023/01/15 10:48:45;;;;;;;;;;;5.30;99.90;;;;;;5113411;28;19927;-81
2023/01/15 10:51:13;;;;;;;;;;;5.30;99.90;;;;;;5116844;28;19928;-81
2023/01/15 10:53:41;;;;;;;;;;;5.30;99.90;;;;;;5113065;28;19958;-81
2023/01/15 10:56:12;;;;;;;;;;;5.30;99.90;;;;;;5117227;28;20008;-81
2023/01/15 10:58:40;;;;;;;;;;;5.30;99.90;;;;;;5117816;28;19924;-81
2023/01/15 11:01:10;;;;;;;;;;;5.30;99.90;;;;;;5117693;28;19924;-81
2023/01/15 11:03:37;;;;;;;;;;;5.30;99.90;;;;;;5115147;28;20392;-81
2023/01/15 11:06:04;;;;;;;;;;;5.30;99.90;;;;;;5091734;28;19924;-81
2023/01/15 11:08:30;;;;;;;;;;;5.40;99.90;;;;;;5117719;28;19938;-81
2023/01/15 11:19:39;;;;;;;;;;;5.80;99.90;;;;;;5114071;28;19943;-81
2023/01/15 11:22:08;;;;;;;;;;;5.80;99.90;;;;;;5117204;28;19945;-81
2023/01/15 11:24:37;;;;;;;;;;;5.80;99.90;;;;;;5099872;28;19946;-81
2023/01/15 11:27:04;;;;;;;;;;;5.90;99.90;;;;;;5101341;28;19946;-81
2023/01/15 11:29:31;;;;;;;;;;;5.90;99.90;;;;;;5099428;28;19928;-81
2023/01/15 11:31:57;;;;;;;;;;;6.00;99.90;;;;;;5119520;28;19924;-81
2023/01/15 11:34:23;;;;;;;;;;;6.10;99.90;;;;;;5113972;28;19924;-81
2023/01/15 11:36:59;;;;;;;;;;;6.20;99.90;;;;;;5088778;28;19928;-81
2023/01/15 11:39:27;;;;;;;;;;;6.20;99.90;;;;;;5113706;27;20312;-81
2023/01/15 11:53:06;;;;;;;;;;;6.30;99.90;;;;;;5115033;28;19962;-80
2023/01/15 11:55:31;;;;;;;;;;;6.40;99.90;;;;;;5108367;28;20538;-81
2023/01/15 11:57:57;;;;;;;;;;;6.50;99.90;;;;;;5117112;28;19927;-81
2023/01/15 12:00:27;;;;;;;;;;;6.70;99.90;;;;;;5116577;28;19927;-81
2023/01/15 12:03:03;;;;;;;;;;;6.80;99.90;;;;;;5090913;28;19924;-81
2023/01/15 12:05:30;;;;;;;;;;;6.80;99.90;;;;;;5114700;28;19953;-81
2023/01/15 12:07:57;;;;;;;;;;;6.90;99.90;;;;;;5114433;28;19961;-81
2023/01/15 12:13:29;;;;;;;;;;;6.80;99.90;;;;;;5107112;28;19928;-80
2023/01/15 12:16:06;;;;;;;;;;;6.80;99.90;;;;;;5108691;28;20381;-80
2023/01/15 12:18:51;;;;;;;;;;;6.80;99.90;;;;;;5114583;28;19970;-80
2023/01/15 12:21:28;;;;;;;;;;;6.80;99.90;;;;;;5098512;28;19924;-81
2023/01/15 12:24:13;;;;;;;;;;;6.80;99.90;;;;;;5115299;28;19931;-79
2023/01/15 12:26:48;;;;;;;;;;;6.80;99.90;;;;;;5115459;28;19928;-80
2023/01/15 12:29:23;;;;;;;;;;;6.70;99.90;;;;;;5108724;28;19923;-80
2023/01/15 12:31:51;;;;;;;;;;;6.60;99.90;;;;;;5115791;28;19962;-80
2023/01/15 12:34:26;;;;;;;;;;;6.50;99.90;;;;;;5115491;28;19951;-79
2023/01/15 12:37:19;;;;;;;;;;;6.50;99.90;;;;;;5116553;28;20146;-80
2023/01/15 12:40:05;;;;;;;;;;;6.50;99.90;;;;;;5117441;28;19927;-80
2023/01/15 12:45:19;;;;;;;;;;;6.50;99.90;;;;;;5111779;28;19996;-80
2023/01/15 12:47:48;;;;;;;;;;;6.40;99.90;;;;;;5121513;28;19934;-80
2023/01/15 12:50:26;;;;;;;;;;;6.40;99.90;;;;;;5102988;27;19956;-80
2023/01/15 12:53:12;;;;;;;;;;;6.30;99.90;;;;;;5114236;28;19924;-80
2023/01/15 12:55:41;;;;;;;;;;;6.30;99.90;;;;;;5120109;28;19969;-80
2023/01/15 12:58:16;;;;;;;;;;;6.30;99.90;;;;;;5119984;28;19928;-77
2023/01/15 13:00:42;;;;;;;;;;;6.30;99.90;;;;;;5120588;28;19974;-78
2023/01/15 13:03:13;;;;;;;;;;;6.20;99.90;;;;;;5117827;28;19953;-77
2023/01/15 13:05:59;;;;;;;;;;;6.00;99.90;;;;;;5110133;28;19924;-78
2023/01/15 13:08:25;;;;;;;;;;;5.90;99.90;;;;;;5118171;28;19985;-77
2023/01/15 13:10:51;;;;;;;;;;;5.80;99.90;;;;;;5109954;27;19927;-77
2023/01/15 13:13:23;;;;;;;;;;;5.70;99.90;;;;;;5124962;27;19928;-77
2023/01/15 13:16:07;;;;;;;;;;;5.70;99.90;;;;;;5120299;28;19931;-77
2023/01/15 13:18:36;;;;;;;;;;;5.60;99.90;;;;;;5107976;28;19928;-81
2023/01/15 13:21:13;;;;;;;;;;;5.70;99.90;;;;;;5111026;28;19924;-81
2023/01/15 13:23:43;;;;;;;;;;;5.80;99.90;;;;;;5094072;28;19931;-80
2023/01/15 13:26:09;;;;;;;;;;;5.90;99.90;;;;;;5113390;28;19939;-80
2023/01/15 13:28:40;;;;;;;;;;;6.00;99.90;;;;;;5106428;28;19923;-81
2023/01/15 13:31:12;;;;;;;;;;;6.20;99.90;;;;;;5113267;28;20362;-80
2023/01/15 13:33:43;;;;;;;;;;;6.20;99.90;;;;;;5117813;28;19927;-81
2023/01/15 13:36:27;;;;;;;;;;;6.30;99.90;;;;;;5093828;28;20347;-81
2023/01/15 13:38:56;;;;;;;;;;;6.40;99.90;;;;;;5110318;28;20401;-81
2023/01/15 13:44:16;;;;;;;;;;;6.40;99.90;;;;;;5120167;28;19924;-81
2023/01/15 13:46:42;;;;;;;;;;;6.50;99.90;;;;;;5099787;28;19927;-81
2023/01/15 13:49:20;;;;;;;;;;;6.50;99.90;;;;;;5111611;28;20298;-80
2023/01/15 13:51:47;;;;;;;;;;;6.40;99.90;;;;;;5119528;28;19924;-81
2023/01/15 13:54:15;;;;;;;;;;;6.50;99.90;;;;;;5120083;28;20312;-81
2023/01/15 13:56:40;;;;;;;;;;;6.50;99.90;;;;;;5119772;28;19935;-81
2023/01/15 13:59:26;;;;;;;;;;;6.50;99.90;;;;;;5121576;28;20048;-81
2023/01/15 14:01:51;;;;;;;;;;;6.50;99.90;;;;;;5112946;28;20018;-81
2023/01/15 14:04:30;;;;;;;;;;;6.50;99.90;;;;;;5103110;28;19930;-81
2023/01/15 14:06:55;;;;;;;;;;;6.50;99.90;;;;;;5120436;28;20540;-81
2023/01/15 14:09:21;;;;;;;;;;;6.50;99.90;;;;;;5111836;27;19923;-81
2023/01/15 14:11:46;;;;;;;;;;;6.50;99.90;;;;;;5120797;27;19931;-81
2023/01/15 14:14:21;;;;;;;;;;;6.50;99.90;;;;;;5120458;28;19930;-80
2023/01/15 14:17:05;;;;;;;;;;;6.40;99.90;;;;;;5102824;28;20370;-81
2023/01/15 14:19:49;;;;;;;;;;;6.40;99.90;;;;;;5119044;28;19928;-80
2023/01/15 14:22:27;;;;;;;;;;;6.10;99.90;;;;;;5118276;28;19931;-81
2023/01/15 14:25:11;;;;;;;;;;;5.80;99.90;;;;;;5099175;28;19947;-81
2023/01/15 14:27:55;;;;;;;;;;;5.60;99.90;;;;;;5112659;28;20370;-81
2023/01/15 14:30:21;;;;;;;;;;;5.40;99.90;;;;;;5118352;28;19924;-81
2023/01/15 14:33:05;;;;;;;;;;;5.30;99.90;;;;;;5114898;28;19939;-81
2023/01/15 14:35:35;;;;;;;;;;;5.30;99.90;;;;;;5108307;28;19927;-81
2023/01/15 14:38:11;;;;;;;;;;;5.20;99.90;;;;;;5114592;28;19931;-80
2023/01/15 14:40:39;;;;;;;;;;;5.20;99.90;;;;;;5104785;27;19927;-82
2023/01/15 14:43:12;;;;;;;;;;;5.30;99.90;;;;;;5112886;28;19923;-80
2023/01/15 14:45:42;;;;;;;;;;;5.30;99.90;;;;;;5109990;28;19930;-81
2023/01/15 14:48:20;;;;;;;;;;;5.30;99.90;;;;;;5098882;28;20533;-81
2023/01/15 14:50:46;;;;;;;;;;;5.40;99.90;;;;;;5119055;28;19962;-81
2023/01/15 14:53:14;;;;;;;;;;;5.40;99.90;;;;;;5119022;28;19928;-81
2023/01/15 14:55:43;;;;;;;;;;;5.40;99.90;;;;;;5116567;28;19935;-81
2023/01/15 14:58:17;;;;;;;;;;;5.40;99.90;;;;;;5107053;28;20016;-81
2023/01/15 15:00:45;;;;;;;;;;;5.40;99.90;;;;;;5119204;28;19924;-81
2023/01/15 15:03:19;;;;;;;;;;;5.40;99.90;;;;;;5118915;28;19982;-82
2023/01/15 15:05:45;;;;;;;;;;;5.40;99.90;;;;;;5118260;28;20464;-81
2023/01/15 15:08:13;;;;;;;;;;;5.40;99.90;;;;;;5116030;28;19963;-81
2023/01/15 15:10:42;;;;;;;;;;;5.50;99.90;;;;;;5119520;28;19935;-81
2023/01/15 15:13:15;;;;;;;;;;;5.50;99.90;;;;;;5118143;28;19934;-81
2023/01/15 15:15:45;;;;;;;;;;;5.50;99.90;;;;;;5117591;28;19928;-81
2023/01/15 15:18:10;;;;;;;;;;;5.50;99.90;;;;;;5113491;28;19935;-81
2023/01/15 15:20:55;;;;;;;;;;;5.50;99.90;;;;;;5115722;28;19923;-81
2023/01/15 15:23:20;;;;;;;;;;;5.50;99.90;;;;;;5101846;28;19927;-81
2023/01/15 15:25:54;;;;;;;;;;;5.50;99.90;;;;;;5100497;28;19923;-81
2023/01/15 15:28:20;;;;;;;;;;;5.50;99.90;;;;;;5110995;28;19931;-81
2023/01/15 15:30:45;;;;;;;;;;;5.60;99.90;;;;;;5101098;28;19923;-81
2023/01/15 15:33:14;;;;;;;;;;;5.60;99.90;;;;;;5119450;28;19923;-81
2023/01/15 15:35:42;;;;;;;;;;;5.60;99.90;;;;;;5118339;28;19928;-81
2023/01/15 15:38:14;;;;;;;;;;;5.60;99.90;;;;;;5095492;28;19928;-81
2023/01/15 15:40:44;;;;;;;;;;;5.60;99.90;;;;;;5129658;27;19927;-81